createdAt,value
2019-06-07T00:01:44.358Z,99056.47
2019-06-07T00:04:16.101Z,99051.98
2019-06-07T00:06:47.003Z,99056.55
2019-06-07T00:09:21.971Z,99055.86
2019-06-07T00:11:49.488Z,99064.09
2019-06-07T00:14:21.148Z,99052.77
2019-06-07T00:16:51.613Z,99054.68
2019-06-07T00:19:21.741Z,99052.59
2019-06-07T00:22:17.696Z,99045.59
2019-06-07T00:24:23.858Z,99046.91
2019-06-07T00:26:58.866Z,99055.77
2019-06-07T00:29:26.214Z,99055.77
2019-06-07T00:31:56.495Z,99050.30
2019-06-07T00:34:27.711Z,99046.20
2019-06-07T00:36:57.878Z,99046.98
2019-06-07T00:39:29.570Z,99044.83
2019-06-07T00:41:59.522Z,99037.89
2019-06-07T00:44:29.752Z,99043.84
2019-06-07T00:47:00.047Z,99042.25
2019-06-07T00:49:40.648Z,99040.22
2019-06-07T00:52:03.800Z,99034.57
2019-06-07T00:54:34.216Z,99039.47
2019-06-07T00:57:04.934Z,99030.16
2019-06-07T00:59:35.034Z,99040.00
2019-06-07T01:02:05.477Z,99028.83
2019-06-07T01:04:35.974Z,99029.27
2019-06-07T01:07:06.192Z,99032.20
2019-06-07T01:09:36.408Z,99029.95
2019-06-07T01:12:07.149Z,99033.54
2019-06-07T01:14:37.331Z,99031.45
2019-06-07T01:17:41.703Z,99038.83
2019-06-07T01:19:58.934Z,99034.70
2019-06-07T01:22:29.587Z,99036.44
2019-06-07T01:25:00.396Z,99027.70
2019-06-07T01:27:31.001Z,99025.89
2019-06-07T01:30:01.215Z,99039.80
2019-06-07T01:32:31.978Z,99035.73
2019-06-07T01:35:02.447Z,99044.81
2019-06-07T01:37:32.503Z,99040.69
2019-06-07T01:40:03.063Z,99041.61
2019-06-07T01:42:33.553Z,99044.70
2019-06-07T01:45:05.888Z,99044.53
2019-06-07T01:47:36.045Z,99062.36
2019-06-07T01:50:08.070Z,99061.81
2019-06-07T01:52:39.791Z,99059.09
2019-06-07T01:55:09.214Z,99063.20
2019-06-07T01:57:48.039Z,99059.62
2019-06-07T02:00:14.561Z,99064.53
2019-06-07T02:02:44.067Z,99068.84
2019-06-07T02:05:14.785Z,99061.30
2019-06-07T02:07:44.994Z,99067.66
2019-06-07T02:10:15.456Z,99071.81
2019-06-07T02:12:45.894Z,99068.83
2019-06-07T02:15:21.273Z,99071.68
2019-06-07T02:17:49.593Z,99065.36
2019-06-07T02:20:20.322Z,99062.20
2019-06-07T02:22:51.144Z,99054.06
2019-06-07T02:25:38.278Z,99057.22
2019-06-07T02:28:11.000Z,99058.98
2019-06-07T02:30:50.906Z,99055.19
2019-06-07T02:32:57.716Z,99053.70
2019-06-07T02:35:34.767Z,99047.25
2019-06-07T02:38:00.321Z,99040.66
2019-06-07T02:40:36.481Z,99053.55
2019-06-07T02:43:03.111Z,99053.98
2019-06-07T02:45:42.544Z,99058.45
2019-06-07T02:48:04.418Z,99070.44
2019-06-07T02:50:38.382Z,99062.96
2019-06-07T02:53:06.616Z,99069.27
2019-06-07T02:56:11.655Z,99063.92
2019-06-07T02:58:08.936Z,99069.48
2019-06-07T03:01:04.073Z,99069.17
2019-06-07T03:03:19.046Z,99073.30
2019-06-07T03:05:50.360Z,99061.23
2019-06-07T03:08:21.061Z,99056.64
2019-06-07T03:10:52.881Z,99061.53
2019-06-07T03:13:22.362Z,99058.55
2019-06-07T03:15:54.850Z,99060.14
2019-06-07T03:18:42.533Z,99072.30
2019-06-07T03:21:15.457Z,99063.06
2019-06-07T03:23:46.641Z,99062.54
2019-06-07T03:26:17.279Z,99057.39
2019-06-07T03:28:48.602Z,99060.22
2019-06-07T03:31:18.856Z,99063.48
2019-06-07T03:33:49.070Z,99068.55
2019-06-07T03:36:25.522Z,99071.70
2019-06-07T03:38:51.428Z,99085.10
2019-06-07T03:41:21.650Z,99086.40
2019-06-07T03:43:52.498Z,99088.66
2019-06-07T03:46:22.748Z,99093.27
2019-06-07T03:48:52.846Z,99101.18
2019-06-07T03:51:26.936Z,99100.97
2019-06-07T03:53:56.086Z,99096.13
2019-06-07T03:56:28.180Z,99102.47
2019-06-07T03:58:58.656Z,99107.07
2019-06-07T04:01:30.746Z,99114.33
2019-06-07T04:04:02.044Z,99115.30
2019-06-07T04:06:34.026Z,99121.70
2019-06-07T04:09:05.876Z,99124.80
2019-06-07T04:11:40.421Z,99121.06
2019-06-07T04:14:07.215Z,99129.84
2019-06-07T04:16:41.702Z,99127.81
2019-06-07T04:19:09.160Z,99132.16
2019-06-07T04:21:42.930Z,99132.37
2019-06-07T04:24:13.504Z,99138.72
2019-06-07T04:26:46.641Z,99136.76
2019-06-07T04:29:34.051Z,99126.92
2019-06-07T04:31:47.826Z,99131.95
2019-06-07T04:34:18.038Z,99133.77
2019-06-07T04:36:58.448Z,99133.02
2019-06-07T04:39:22.268Z,99124.52
2019-06-07T04:41:53.940Z,99115.42
2019-06-07T04:44:25.356Z,99115.17
2019-06-07T04:46:57.422Z,99107.45
2019-06-07T04:49:29.949Z,99108.22
2019-06-07T04:52:03.756Z,99110.61
2019-06-07T04:54:35.736Z,99112.84
2019-06-07T04:57:05.819Z,99110.72
2019-06-07T05:02:09.319Z,99117.74
2019-06-07T05:04:42.402Z,99110.19
2019-06-07T05:07:13.179Z,99108.03
2019-06-07T05:09:43.537Z,99103.53
2019-06-07T05:12:13.784Z,99108.33
2019-06-07T05:14:44.442Z,99113.37
2019-06-07T05:17:15.763Z,99110.89
2019-06-07T05:19:45.933Z,99117.70
2019-06-07T05:22:16.092Z,99119.02
2019-06-07T05:24:46.237Z,99130.88
2019-06-07T05:27:16.412Z,99137.00
2019-06-07T05:30:08.782Z,99133.38
2019-06-07T05:32:18.887Z,99135.94
2019-06-07T05:34:48.991Z,99133.41
2019-06-07T05:37:19.272Z,99135.53
2019-06-07T05:39:50.518Z,99134.41
2019-06-07T05:42:21.221Z,99136.64
2019-06-07T05:44:52.052Z,99145.81
2019-06-07T05:47:22.266Z,99142.19
2019-06-07T05:49:52.356Z,99141.54
2019-06-07T05:52:22.919Z,99139.61
2019-06-07T05:54:53.314Z,99147.20
2019-06-07T05:57:23.410Z,99150.41
2019-06-07T05:59:53.803Z,99144.88
2019-06-07T06:02:25.069Z,99150.88
2019-06-07T06:04:54.705Z,99154.11
2019-06-07T06:07:24.700Z,99156.55
2019-06-07T06:09:54.817Z,99166.29
2019-06-07T06:12:35.169Z,99178.71
2019-06-07T06:14:58.105Z,99181.63
2019-06-07T06:17:28.961Z,99183.09
2019-06-07T06:19:59.187Z,99185.55
2019-06-07T06:22:30.425Z,99191.11
2019-06-07T06:25:31.110Z,99187.16
2019-06-07T06:30:08.136Z,99200.59
2019-06-07T06:32:45.567Z,99199.91
2019-06-07T06:35:10.725Z,99195.14
2019-06-07T06:37:46.468Z,99199.47
2019-06-07T06:40:16.237Z,99194.86
2019-06-07T06:42:49.064Z,99199.31
2019-06-07T06:45:19.194Z,99199.23
2019-06-07T06:47:50.677Z,99206.33
2019-06-07T06:50:21.483Z,99196.02
2019-06-07T06:52:54.716Z,99201.92
2019-06-07T06:55:23.848Z,99201.09
2019-06-07T06:57:54.041Z,99197.34
2019-06-07T07:01:04.896Z,99199.64
2019-06-07T07:05:56.945Z,99199.31
2019-06-07T07:08:27.257Z,99206.84
2019-06-07T07:10:57.419Z,99206.70
2019-06-07T07:13:29.132Z,99210.73
2019-06-07T07:15:58.853Z,99211.42
2019-06-07T07:18:29.125Z,99212.14
2019-06-07T07:21:00.577Z,99211.06
2019-06-07T07:23:30.835Z,99210.16
2019-06-07T07:26:02.254Z,99203.45
2019-06-07T07:28:32.485Z,99205.84
2019-06-07T07:31:04.483Z,99204.66
2019-06-07T07:34:20.707Z,99208.43
2019-06-07T07:36:28.146Z,99214.56
2019-06-07T07:38:39.506Z,99212.61
2019-06-07T07:41:15.539Z,99216.41
2019-06-07T07:43:45.782Z,99219.91
2019-06-07T07:46:31.552Z,99221.25
2019-06-07T07:48:48.553Z,99218.99
2019-06-07T07:51:18.920Z,99215.40
2019-06-07T07:53:59.154Z,99213.22
2019-06-07T07:56:20.983Z,99218.98
2019-06-07T07:58:57.935Z,99222.84
2019-06-07T08:01:23.147Z,99229.02
2019-06-07T08:03:54.972Z,99235.14
2019-06-07T08:06:25.240Z,99236.70
2019-06-07T08:08:57.064Z,99232.74
2019-06-07T08:11:30.037Z,99233.06
2019-06-07T08:14:00.269Z,99236.94
2019-06-07T08:16:30.492Z,99239.67
2019-06-07T08:19:04.047Z,99238.19
2019-06-07T08:21:33.147Z,99243.60
2019-06-07T08:24:05.416Z,99239.12
2019-06-07T08:26:34.975Z,99235.11
2019-06-07T08:29:05.577Z,99244.70
2019-06-07T08:31:36.140Z,99252.05
2019-06-07T08:34:06.456Z,99246.84
2019-06-07T08:36:42.348Z,99245.23
2019-06-07T08:39:09.013Z,99243.62
2019-06-07T08:41:53.514Z,99241.25
2019-06-07T08:44:23.211Z,99250.14
2019-06-07T08:46:43.901Z,99247.30
2019-06-07T08:49:14.061Z,99250.95
2019-06-07T08:51:44.303Z,99257.56
2019-06-07T08:54:22.443Z,99264.95
2019-06-07T08:56:46.356Z,99259.88
2019-06-07T08:59:16.515Z,99259.05
2019-06-07T09:01:47.222Z,99260.23
2019-06-07T09:04:17.360Z,99262.86
2019-06-07T09:07:06.661Z,99265.46
2019-06-07T09:09:19.662Z,99267.95
2019-06-07T09:11:49.816Z,99260.12
2019-06-07T09:14:19.946Z,99268.02
2019-06-07T09:16:51.497Z,99277.66
2019-06-07T09:19:20.744Z,99270.42
2019-06-07T09:21:50.853Z,99273.52
2019-06-07T09:24:21.141Z,99272.06
2019-06-07T09:26:51.433Z,99282.94
2019-06-07T09:29:21.652Z,99273.56
2019-06-07T09:31:53.696Z,99279.39
2019-06-07T09:34:26.002Z,99281.77
2019-06-07T09:36:58.260Z,99281.39
2019-06-07T09:39:28.247Z,99276.97
2019-06-07T09:42:00.740Z,99276.56
2019-06-07T09:44:31.124Z,99285.53
2019-06-07T09:47:29.585Z,99281.33
2019-06-07T09:49:33.914Z,99279.91
2019-06-07T09:52:09.114Z,99280.86
2019-06-07T09:55:05.931Z,99280.62
2019-06-07T09:57:16.379Z,99280.86
2019-06-07T09:59:39.724Z,99272.05
2019-06-07T10:02:13.739Z,99275.33
2019-06-07T10:04:43.388Z,99267.34
2019-06-07T10:07:30.724Z,99273.77
2019-06-07T10:12:19.010Z,99273.59
2019-06-07T10:14:49.134Z,99281.58
2019-06-07T10:17:19.623Z,99283.78
2019-06-07T10:19:49.801Z,99283.17
2019-06-07T10:22:19.942Z,99278.91
2019-06-07T10:24:50.165Z,99283.72
2019-06-07T10:27:23.936Z,99280.06
2019-06-07T10:29:54.065Z,99286.11
2019-06-07T10:32:24.713Z,99279.77
2019-06-07T10:34:54.906Z,99278.39
2019-06-07T10:37:27.115Z,99287.39
2019-06-07T10:39:57.018Z,99279.34
2019-06-07T10:42:27.256Z,99279.80
2019-06-07T10:44:57.443Z,99273.59
2019-06-07T10:47:27.986Z,99272.65
2019-06-07T10:49:58.221Z,99266.08
2019-06-07T10:52:28.303Z,99261.11
2019-06-07T10:54:58.620Z,99261.13
2019-06-07T10:57:28.733Z,99267.34
2019-06-07T10:59:58.960Z,99268.13
2019-06-07T11:02:29.414Z,99270.95
2019-06-07T11:04:59.624Z,99276.56
2019-06-07T11:07:30.007Z,99266.55
2019-06-07T11:10:07.340Z,99272.14
2019-06-07T11:12:32.073Z,99272.98
2019-06-07T11:15:02.314Z,99270.97
2019-06-07T11:17:32.702Z,99271.37
2019-06-07T11:20:03.586Z,99273.36
2019-06-07T11:22:33.668Z,99281.77
2019-06-07T11:25:06.905Z,99281.77
2019-06-07T11:27:37.179Z,99279.77
2019-06-07T11:30:10.542Z,99275.75
2019-06-07T11:32:41.421Z,99275.36
2019-06-07T11:35:13.972Z,99281.59
2019-06-07T11:37:45.134Z,99283.59
2019-06-07T11:40:29.749Z,99278.19
2019-06-07T11:42:52.555Z,99276.36
2019-06-07T11:45:21.374Z,99279.77
2019-06-07T11:47:52.111Z,99285.37
2019-06-07T11:50:22.425Z,99278.78
2019-06-07T11:52:52.586Z,99277.94
2019-06-07T11:55:22.791Z,99274.95
2019-06-07T11:57:52.934Z,99278.18
2019-06-07T12:00:25.042Z,99282.97
2019-06-07T12:02:55.367Z,99279.77
2019-06-07T12:05:25.564Z,99285.78
2019-06-07T12:07:57.169Z,99277.33
2019-06-07T12:10:39.670Z,99281.72
2019-06-07T12:12:59.576Z,99281.97
2019-06-07T12:15:29.711Z,99279.17
2019-06-07T12:17:59.887Z,99275.77
2019-06-07T12:20:30.271Z,99274.95
2019-06-07T12:23:00.353Z,99267.76
2019-06-07T12:25:30.530Z,99267.78
2019-06-07T12:28:00.663Z,99262.37
2019-06-07T12:30:30.913Z,99260.16
2019-06-07T12:33:01.365Z,99256.95
2019-06-07T12:35:31.603Z,99253.37
2019-06-07T12:38:01.747Z,99252.95
2019-06-07T12:40:32.506Z,99251.55
2019-06-07T12:43:03.316Z,99252.95
2019-06-07T12:45:44.436Z,99247.13
2019-06-07T12:48:06.008Z,99246.73
2019-06-07T12:50:43.150Z,99250.16
2019-06-07T12:53:08.419Z,99239.54
2019-06-07T12:55:39.572Z,99241.15
2019-06-07T12:58:09.840Z,99241.95
2019-06-07T13:00:40.114Z,99238.14
2019-06-07T13:03:10.542Z,99246.33
2019-06-07T13:05:40.854Z,99242.94
2019-06-07T13:08:11.145Z,99246.53
2019-06-07T13:10:41.361Z,99249.74
2019-06-07T13:13:11.504Z,99240.33
2019-06-07T13:15:41.705Z,99241.55
2019-06-07T13:18:15.020Z,99241.53
2019-06-07T13:20:44.144Z,99239.16
2019-06-07T13:23:14.275Z,99243.95
2019-06-07T13:25:46.665Z,99245.55
2019-06-07T13:28:17.254Z,99243.55
2019-06-07T13:30:48.199Z,99236.90
2019-06-07T13:33:19.099Z,99242.16
2019-06-07T13:35:49.327Z,99243.34
2019-06-07T13:38:26.731Z,99237.14
2019-06-07T13:40:57.137Z,99229.34
2019-06-07T13:43:28.782Z,99230.14
2019-06-07T13:45:58.968Z,99228.53
2019-06-07T13:48:30.861Z,99224.94
2019-06-07T13:51:00.976Z,99220.30
2019-06-07T13:53:31.293Z,99226.53
2019-06-07T13:56:01.438Z,99228.72
2019-06-07T13:58:32.912Z,99220.30
2019-06-07T14:01:02.230Z,99223.73
2019-06-07T14:03:33.881Z,99225.14
2019-06-07T14:06:05.047Z,99224.51
2019-06-07T14:08:35.181Z,99222.91
2019-06-07T14:11:05.425Z,99224.51
2019-06-07T14:13:35.720Z,99218.52
2019-06-07T14:16:06.050Z,99217.31
2019-06-07T14:18:39.746Z,99220.94
2019-06-07T14:21:09.602Z,99220.30
2019-06-07T14:23:48.991Z,99223.94
2019-06-07T14:26:14.439Z,99226.13
2019-06-07T14:28:45.554Z,99225.92
2019-06-07T14:31:15.765Z,99229.32
2019-06-07T14:33:46.439Z,99221.33
2019-06-07T14:36:16.712Z,99222.53
2019-06-07T14:38:48.050Z,99207.89
2019-06-07T14:41:18.371Z,99210.31
2019-06-07T14:43:48.652Z,99215.53
2019-06-07T14:46:19.002Z,99215.13
2019-06-07T14:48:49.478Z,99213.09
2019-06-07T14:51:19.637Z,99214.10
2019-06-07T14:53:49.975Z,99220.50
2019-06-07T14:56:20.192Z,99208.32
2019-06-07T14:58:50.278Z,99212.49
2019-06-07T15:01:20.506Z,99212.69
2019-06-07T15:03:50.950Z,99210.52
2019-06-07T15:06:21.295Z,99209.91
2019-06-07T15:08:51.811Z,99207.70
2019-06-07T15:11:22.208Z,99204.08
2019-06-07T15:13:54.138Z,99212.91
2019-06-07T15:16:24.353Z,99206.48
2019-06-07T15:18:54.793Z,99209.91
2019-06-07T15:21:25.036Z,99207.50
2019-06-07T15:23:55.166Z,99203.10
2019-06-07T15:26:25.290Z,99216.70
2019-06-07T15:28:57.526Z,99215.30
2019-06-07T15:31:29.900Z,99206.52
2019-06-07T15:34:00.718Z,99213.11
2019-06-07T15:36:30.804Z,99218.13
2019-06-07T15:39:01.049Z,99213.51
2019-06-07T15:41:33.112Z,99206.50
2019-06-07T15:44:04.948Z,99212.93
2019-06-07T15:46:35.644Z,99209.30
2019-06-07T15:49:07.137Z,99216.33
2019-06-07T15:51:38.536Z,99214.31
2019-06-07T15:54:08.979Z,99210.13
2019-06-07T15:56:39.216Z,99216.73
2019-06-07T15:59:09.336Z,99218.31
2019-06-07T16:01:42.053Z,99217.94
2019-06-07T16:04:12.718Z,99215.89
2019-06-07T16:06:43.528Z,99210.70
2019-06-07T16:09:14.143Z,99213.29
2019-06-07T16:11:44.478Z,99214.48
2019-06-07T16:14:14.938Z,99218.13
2019-06-07T16:16:45.105Z,99217.54
2019-06-07T16:19:15.370Z,99214.53
2019-06-07T16:21:45.478Z,99209.30
2019-06-07T16:24:15.635Z,99213.29
2019-06-07T16:26:45.769Z,99214.89
2019-06-07T16:29:16.017Z,99225.33
2019-06-07T16:31:46.223Z,99223.89
2019-06-07T16:34:17.713Z,99219.49
2019-06-07T16:36:48.858Z,99220.50
2019-06-07T16:39:19.934Z,99217.30
2019-06-07T16:41:50.205Z,99217.68
2019-06-07T16:44:20.404Z,99211.09
2019-06-07T16:46:50.732Z,99218.90
2019-06-07T16:49:21.727Z,99218.50
2019-06-07T16:51:51.573Z,99214.30
2019-06-07T16:54:21.693Z,99221.70
2019-06-07T16:56:51.875Z,99223.08
2019-06-07T16:59:22.145Z,99227.70
2019-06-07T17:01:52.279Z,99221.70
2019-06-07T17:04:22.562Z,99225.09
2019-06-07T17:06:52.957Z,99224.48
2019-06-07T17:09:23.145Z,99234.89
2019-06-07T17:11:53.329Z,99237.48
2019-06-07T17:14:23.468Z,99240.69
2019-06-07T17:16:53.772Z,99240.09
2019-06-07T17:19:24.196Z,99247.31
2019-06-07T17:21:54.308Z,99236.08
2019-06-07T17:24:26.863Z,99240.69
2019-06-07T17:26:57.075Z,99236.48
2019-06-07T17:29:27.324Z,99236.91
2019-06-07T17:34:26.951Z,99240.91
2019-06-07T17:36:57.125Z,99244.09
2019-06-07T17:39:27.263Z,99235.47
2019-06-07T17:42:02.179Z,99240.46
2019-06-07T17:44:29.238Z,99240.67
2019-06-07T17:46:59.354Z,99238.05
2019-06-07T17:49:31.374Z,99242.05
2019-06-07T17:52:01.549Z,99239.27
2019-06-07T17:54:31.702Z,99234.05
2019-06-07T17:57:01.857Z,99231.64
2019-06-07T17:59:32.004Z,99232.05
2019-06-07T18:02:14.236Z,99231.23
2019-06-07T18:04:34.482Z,99232.42
2019-06-07T18:07:04.990Z,99226.83
2019-06-07T18:09:36.290Z,99233.57
2019-06-07T18:12:06.572Z,99234.30
2019-06-07T18:14:37.422Z,99224.30
2019-06-07T18:17:07.572Z,99229.09
2019-06-07T18:19:38.184Z,99221.48
2019-06-07T18:22:11.316Z,99226.79
2019-06-07T18:24:41.556Z,99226.79
2019-06-07T18:27:11.894Z,99233.17
2019-06-07T18:29:42.008Z,99227.31
2019-06-07T18:32:13.581Z,99235.53
2019-06-07T18:34:44.604Z,99242.83
2019-06-07T18:37:16.119Z,99248.55
2019-06-07T18:39:47.026Z,99247.36
2019-06-07T18:42:17.649Z,99251.70
2019-06-07T18:44:48.929Z,99249.13
2019-06-07T18:47:19.332Z,99255.13
2019-06-07T18:49:51.194Z,99252.45
2019-06-07T18:52:23.320Z,99263.67
2019-06-07T18:54:54.977Z,99257.67
2019-06-07T18:57:24.652Z,99267.94
2019-06-07T18:59:54.904Z,99278.07
2019-06-07T19:02:25.221Z,99283.37
2019-06-07T19:04:58.330Z,99277.78
2019-06-07T19:07:28.972Z,99290.75
2019-06-07T19:09:59.547Z,99294.63
2019-06-07T19:12:29.909Z,99293.66
2019-06-07T19:15:00.215Z,99295.05
2019-06-07T19:17:30.519Z,99299.35
2019-06-07T19:20:01.118Z,99299.23
2019-06-07T19:22:31.496Z,99302.80
2019-06-07T19:25:04.245Z,99297.71
2019-06-07T19:27:34.726Z,99308.02
2019-06-07T19:30:07.381Z,99301.32
2019-06-07T19:32:39.947Z,99307.53
2019-06-07T19:35:12.294Z,99300.98
2019-06-07T19:37:42.782Z,99300.91
2019-06-07T19:40:13.827Z,99307.33
2019-06-07T19:42:44.246Z,99307.05
2019-06-07T19:45:30.383Z,99309.34
2019-06-07T19:47:48.683Z,99305.86
2019-06-07T19:50:20.950Z,99301.78
2019-06-07T19:52:53.181Z,99306.58
2019-06-07T19:55:23.553Z,99305.88
2019-06-07T19:57:55.478Z,99305.18
2019-06-07T20:00:26.130Z,99299.68
2019-06-07T20:02:57.909Z,99297.27
2019-06-07T20:05:28.541Z,99298.63
2019-06-07T20:07:58.853Z,99296.59
2019-06-07T20:10:29.137Z,99305.26
2019-06-07T20:13:00.697Z,99307.27
2019-06-07T20:15:30.322Z,99306.17
2019-06-07T20:18:01.313Z,99303.73
2019-06-07T20:20:31.871Z,99307.89
2019-06-07T20:23:03.047Z,99305.31
2019-06-07T20:25:34.381Z,99299.55
2019-06-07T20:28:05.534Z,99302.66
2019-06-07T20:30:37.617Z,99299.99
2019-06-07T20:33:08.251Z,99296.96
2019-06-07T20:35:40.411Z,99286.28
2019-06-07T20:38:13.221Z,99288.44
2019-06-07T20:40:43.371Z,99297.58
2019-06-07T20:43:13.461Z,99298.77
2019-06-07T20:45:43.607Z,99303.50
2019-06-07T20:48:13.767Z,99310.08
2019-06-07T20:50:44.494Z,99306.34
2019-06-07T20:53:16.084Z,99317.23
2019-06-07T20:55:45.355Z,99309.80
2019-06-07T20:58:15.326Z,99319.08
2019-06-07T21:00:45.489Z,99319.95
2019-06-07T21:03:15.715Z,99320.92
2019-06-07T21:05:46.714Z,99321.20
2019-06-07T21:08:17.293Z,99317.94
2019-06-07T21:10:47.409Z,99315.63
2019-06-07T21:13:17.579Z,99318.95
2019-06-07T21:15:49.226Z,99319.89
2019-06-07T21:18:20.213Z,99321.86
2019-06-07T21:20:50.765Z,99319.53
2019-06-07T21:23:21.995Z,99321.95
2019-06-07T21:25:52.139Z,99323.50
2019-06-07T21:28:22.356Z,99323.37
2019-06-07T21:30:52.596Z,99321.14
2019-06-07T21:33:22.677Z,99324.41
2019-06-07T21:35:53.322Z,99320.05
2019-06-07T21:38:23.531Z,99319.74
2019-06-07T21:40:53.668Z,99319.44
2019-06-07T21:43:23.966Z,99320.31
2019-06-07T21:46:04.683Z,99321.05
2019-06-07T21:48:25.938Z,99317.80
2019-06-07T21:50:56.660Z,99313.13
2019-06-07T21:53:30.000Z,99313.89
2019-06-07T21:56:00.066Z,99311.41
2019-06-07T21:58:30.156Z,99313.45
2019-06-07T22:01:06.750Z,99316.34
2019-06-07T22:03:40.125Z,99308.09
2019-06-07T22:06:11.708Z,99322.06
2019-06-07T22:08:41.049Z,99316.30
2019-06-07T22:11:12.325Z,99315.42
2019-06-07T22:13:42.715Z,99320.43
2019-06-07T22:16:26.247Z,99323.52
2019-06-07T22:18:44.839Z,99315.23
2019-06-07T22:21:16.564Z,99317.48
2019-06-07T22:23:45.799Z,99318.78
2019-06-07T22:26:15.941Z,99316.23
2019-06-07T22:28:46.891Z,99319.70
2019-06-07T22:31:17.052Z,99320.03
2019-06-07T22:33:47.154Z,99311.70
2019-06-07T22:36:17.905Z,99319.00
2019-06-07T22:38:49.264Z,99313.84
2019-06-07T22:41:19.375Z,99316.31
2019-06-07T22:43:49.505Z,99315.45
2019-06-07T22:46:19.872Z,99315.35
2019-06-07T22:48:51.304Z,99315.63
2019-06-07T22:51:21.952Z,99307.63
2019-06-07T22:53:52.047Z,99307.20
2019-06-07T22:56:23.826Z,99303.02
2019-06-07T22:58:53.086Z,99304.73
2019-06-07T23:01:23.629Z,99298.09
2019-06-07T23:03:53.826Z,99304.20
2019-06-07T23:06:24.273Z,99293.70
2019-06-07T23:08:54.426Z,99291.34
2019-06-07T23:11:26.228Z,99287.81
2019-06-07T23:13:56.634Z,99286.20
2019-06-07T23:16:26.800Z,99282.23
2019-06-07T23:18:57.313Z,99281.45
2019-06-07T23:21:27.753Z,99277.63
2019-06-07T23:23:57.883Z,99271.53
2019-06-07T23:26:28.028Z,99264.70
2019-06-07T23:28:58.258Z,99266.32
2019-06-07T23:31:28.469Z,99269.53
2019-06-07T23:33:58.608Z,99266.01
2019-06-07T23:36:29.259Z,99261.20
2019-06-07T23:38:59.441Z,99257.03
2019-06-07T23:41:29.591Z,99259.91
2019-06-07T23:43:59.685Z,99254.33
2019-06-07T23:46:29.868Z,99258.11
2019-06-07T23:48:59.971Z,99258.69
2019-06-07T23:51:30.634Z,99263.31
2019-06-07T23:54:00.964Z,99263.70
2019-06-07T23:56:31.716Z,99257.14
2019-06-07T23:59:01.752Z,99256.80
